Time;durP1;ratioP1;P1;durP2;ratioP2;P2;SDS_P1;SDS_P2;PMS_P1;PMS_P2;Temp;Humidity;BMP_temperature;BMP_pressure;BME280_temperature;BME280_humidity;BME280_pressure;Samples;Min_cycle;Max_cycle;Signal;HPM_P1;HPM_P2
2023/08/15 00:01:25;;;;;;;7.30;5.38;;;22.20;99.90;;;;;;5014276;28;20436;-52
2023/08/15 00:03:51;;;;;;;12.18;5.22;;;22.30;99.90;;;;;;5014278;28;20026;-53
2023/08/15 00:06:18;;;;;;;10.15;6.70;;;22.30;99.90;;;;;;5014197;28;20393;-56
2023/08/15 00:08:44;;;;;;;13.13;6.28;;;22.40;99.90;;;;;;5013899;28;20017;-52
2023/08/15 00:11:09;;;;;;;11.38;6.47;;;22.20;99.90;;;;;;5014037;28;20037;-55
2023/08/15 00:13:35;;;;;;;10.85;6.05;;;22.10;99.90;;;;;;5014064;28;20033;-49
2023/08/15 00:16:01;;;;;;;11.70;6.25;;;22.00;99.90;;;;;;5013920;28;20030;-52
2023/08/15 00:18:26;;;;;;;7.97;5.35;;;22.00;99.90;;;;;;5012639;28;20396;-50
2023/08/15 00:20:52;;;;;;;9.00;6.88;;;21.90;99.90;;;;;;5013868;28;20481;-48
2023/08/15 00:23:17;;;;;;;9.98;7.00;;;21.90;99.90;;;;;;5013790;28;20040;-55
2023/08/15 00:25:43;;;;;;;9.63;5.80;;;21.80;99.90;;;;;;5013814;28;20101;-50
2023/08/15 00:28:08;;;;;;;7.78;5.13;;;21.90;99.90;;;;;;5012686;28;20022;-51
2023/08/15 00:30:34;;;;;;;5.05;4.40;;;21.70;99.90;;;;;;5012262;28;20080;-49
2023/08/15 00:32:59;;;;;;;7.18;5.38;;;21.70;99.90;;;;;;5013695;28;20468;-51
2023/08/15 00:35:25;;;;;;;7.80;5.05;;;21.60;99.90;;;;;;5013790;28;20428;-53
2023/08/15 00:37:51;;;;;;;14.30;5.28;;;21.60;99.90;;;;;;5014339;28;20038;-54
2023/08/15 00:40:16;;;;;;;9.63;5.30;;;21.50;99.90;;;;;;5013153;28;20432;-54
2023/08/15 00:42:42;;;;;;;31.63;25.45;;;21.50;99.90;;;;;;5013542;28;20160;-54
2023/08/15 00:45:08;;;;;;;33.20;23.67;;;21.40;99.90;;;;;;5013469;28;20022;-55
2023/08/15 00:47:33;;;;;;;11.85;6.53;;;21.40;99.90;;;;;;5013534;28;20508;-52
2023/08/15 00:50:00;;;;;;;9.38;6.28;;;21.40;99.90;;;;;;5013128;28;20041;-54
2023/08/15 00:52:26;;;;;;;7.60;6.22;;;21.40;99.90;;;;;;5013316;28;20413;-54
2023/08/15 00:54:54;;;;;;;8.43;5.78;;;21.50;99.90;;;;;;5013179;28;20029;-52
2023/08/15 00:57:20;;;;;;;10.60;6.38;;;21.40;99.90;;;;;;5013226;28;20508;-49
2023/08/15 00:59:46;;;;;;;8.05;5.40;;;21.40;99.90;;;;;;5013120;28;20026;-50
2023/08/15 01:02:12;;;;;;;12.15;7.00;;;21.40;99.90;;;;;;5013164;28;20033;-52
2023/08/15 01:04:38;;;;;;;12.43;5.97;;;21.40;99.90;;;;;;5013126;28;20034;-53
2023/08/15 01:07:04;;;;;;;8.63;5.82;;;21.50;99.90;;;;;;5013123;28;20030;-51
2023/08/15 01:09:29;;;;;;;9.63;5.13;;;21.50;99.90;;;;;;5011697;28;20029;-51
2023/08/15 01:12:17;;;;;;;5.88;5.00;;;21.40;99.90;;;;;;5011652;28;20036;-52
2023/08/15 01:14:58;;;;;;;12.85;5.43;;;21.40;99.90;;;;;;5013015;28;20210;-53
2023/08/15 01:17:35;;;;;;;6.95;5.60;;;21.20;99.90;;;;;;5012931;28;20060;-53
2023/08/15 01:20:06;;;;;;;10.02;5.63;;;21.20;99.90;;;;;;5012650;28;20029;-54
2023/08/15 01:22:36;;;;;;;6.53;4.40;;;21.20;99.90;;;;;;5012785;28;20022;-52
2023/08/15 01:25:01;;;;;;;8.38;5.20;;;21.10;99.90;;;;;;5012831;28;20397;-50
2023/08/15 01:27:27;;;;;;;7.65;4.93;;;21.10;99.90;;;;;;5011667;28;20026;-51
2023/08/15 01:29:52;;;;;;;13.27;5.47;;;21.10;99.90;;;;;;5011161;28;20508;-52
2023/08/15 01:32:50;;;;;;;8.43;5.20;;;21.00;99.90;;;;;;5012356;28;20081;-51
2023/08/15 01:35:22;;;;;;;10.13;6.47;;;21.00;99.90;;;;;;4957803;28;20034;-53
2023/08/15 01:37:58;;;;;;;6.82;4.90;;;21.00;99.90;;;;;;5012591;28;20392;-50
2023/08/15 01:40:25;;;;;;;7.03;5.32;;;21.00;99.90;;;;;;5012355;28;20289;-53
2023/08/15 01:42:55;;;;;;;13.77;5.22;;;21.00;99.90;;;;;;5012432;28;20026;-54
2023/08/15 01:45:23;;;;;;;8.02;5.47;;;20.90;99.90;;;;;;5012456;28;20068;-54
2023/08/15 01:47:51;;;;;;;8.93;5.03;;;20.90;99.90;;;;;;5011099;28;20022;-52
2023/08/15 01:50:16;;;;;;;11.80;5.18;;;20.90;99.90;;;;;;5012089;28;20057;-53
2023/08/15 01:52:42;;;;;;;14.70;6.15;;;20.90;99.90;;;;;;5012141;28;20513;-50
2023/08/15 01:55:08;;;;;;;8.23;5.28;;;20.80;99.90;;;;;;5010833;28;20076;-50
2023/08/15 01:57:33;;;;;;;13.00;5.93;;;20.70;99.90;;;;;;5012128;28;20030;-51
2023/08/15 01:59:59;;;;;;;6.65;4.55;;;20.80;99.90;;;;;;5011956;28;20397;-49
2023/08/15 02:02:24;;;;;;;10.05;4.40;;;20.80;99.90;;;;;;5012022;28;20033;-55
2023/08/15 02:04:50;;;;;;;8.43;5.38;;;20.80;99.90;;;;;;5012148;28;20048;-52
2023/08/15 02:07:15;;;;;;;9.63;4.60;;;20.80;99.90;;;;;;5012106;28;20033;-52
2023/08/15 02:09:41;;;;;;;9.55;5.18;;;20.80;99.90;;;;;;5011723;28;20393;-50
2023/08/15 02:12:07;;;;;;;12.80;4.97;;;20.70;99.90;;;;;;5011883;28;20037;-50
2023/08/15 02:14:32;;;;;;;8.70;5.00;;;20.70;99.90;;;;;;5011975;28;20026;-51
2023/08/15 02:16:58;;;;;;;13.75;6.72;;;20.70;99.90;;;;;;5011849;28;20040;-49
2023/08/15 02:19:23;;;;;;;9.35;4.50;;;20.70;99.90;;;;;;5010067;28;20481;-49
2023/08/15 02:21:49;;;;;;;7.85;5.13;;;20.70;99.90;;;;;;5011909;28;20034;-55
2023/08/15 02:24:14;;;;;;;6.35;4.88;;;20.60;99.90;;;;;;5010464;28;20028;-49
2023/08/15 02:26:40;;;;;;;13.20;5.85;;;20.60;99.90;;;;;;5011839;28;20030;-47
2023/08/15 02:29:05;;;;;;;10.55;4.93;;;20.60;99.90;;;;;;5011520;28;20436;-51
2023/08/15 02:31:31;;;;;;;12.40;6.50;;;20.50;99.90;;;;;;5010491;28;20113;-52
2023/08/15 02:33:57;;;;;;;11.63;6.75;;;20.50;99.90;;;;;;5010579;28;20030;-48
2023/08/15 02:36:22;;;;;;;13.07;5.75;;;20.50;99.90;;;;;;5011652;28;20034;-49
2023/08/15 02:38:48;;;;;;;12.18;5.72;;;20.50;99.90;;;;;;5011497;28;20025;-51
2023/08/15 02:41:13;;;;;;;14.35;6.30;;;20.40;99.90;;;;;;5011636;28;20030;-51
2023/08/15 02:43:38;;;;;;;17.90;6.22;;;20.40;99.90;;;;;;5011662;28;20065;-53
2023/08/15 02:46:04;;;;;;;15.05;6.68;;;20.30;99.90;;;;;;5011633;28;20499;-53
2023/08/15 02:48:30;;;;;;;10.80;6.78;;;20.40;99.90;;;;;;5011430;28;20026;-56
2023/08/15 02:50:55;;;;;;;11.68;6.55;;;20.30;99.90;;;;;;5011534;28;20076;-51
2023/08/15 02:53:20;;;;;;;7.70;6.90;;;20.40;99.90;;;;;;5010216;28;20030;-51
2023/08/15 02:55:50;;;;;;;12.05;8.15;;;20.40;99.90;;;;;;5011422;28;20184;-52
2023/08/15 02:58:16;;;;;;;13.95;7.25;;;20.30;99.90;;;;;;5011614;28;20022;-53
2023/08/15 03:00:43;;;;;;;15.07;8.75;;;20.30;99.90;;;;;;5011380;28;20267;-51
2023/08/15 03:03:08;;;;;;;13.82;8.13;;;20.30;99.90;;;;;;5011440;28;20033;-53
2023/08/15 03:05:37;;;;;;;10.25;7.50;;;20.30;99.90;;;;;;5011620;28;20030;-52
2023/08/15 03:08:02;;;;;;;10.85;7.97;;;20.40;99.90;;;;;;5011514;28;20481;-51
2023/08/15 03:10:28;;;;;;;12.50;7.97;;;20.30;99.90;;;;;;5009922;28;20110;-49
2023/08/15 03:12:53;;;;;;;12.55;8.10;;;20.30;99.90;;;;;;5010154;28;20109;-52
2023/08/15 03:15:19;;;;;;;12.23;8.57;;;20.40;99.90;;;;;;5010214;28;20022;-52
2023/08/15 03:17:44;;;;;;;16.23;8.57;;;20.40;99.90;;;;;;5011472;28;20493;-51
2023/08/15 03:20:10;;;;;;;11.48;8.00;;;20.40;99.90;;;;;;5011289;28;20021;-49
2023/08/15 03:22:36;;;;;;;18.60;9.68;;;20.50;99.90;;;;;;5011271;28;20393;-53
2023/08/15 03:25:01;;;;;;;15.57;9.00;;;20.50;99.90;;;;;;5011295;28;20404;-52
2023/08/15 03:27:27;;;;;;;14.45;9.05;;;20.60;99.90;;;;;;5011385;28;20037;-50
2023/08/15 03:29:53;;;;;;;15.60;9.95;;;20.70;99.90;;;;;;5011036;28;20025;-49
2023/08/15 03:32:18;;;;;;;15.88;9.73;;;20.80;99.90;;;;;;5012649;28;20038;-48
2023/08/15 03:34:44;;;;;;;17.20;9.75;;;20.90;99.90;;;;;;5014988;28;20048;-49
2023/08/15 03:37:09;;;;;;;18.48;9.63;;;21.00;99.90;;;;;;5013428;28;20032;-53
2023/08/15 03:39:35;;;;;;;14.25;9.98;;;21.10;99.90;;;;;;5014653;28;20034;-51
2023/08/15 03:42:01;;;;;;;19.60;12.15;;;21.10;99.90;;;;;;5014853;28;20029;-52
2023/08/15 03:44:26;;;;;;;21.95;11.05;;;21.00;99.90;;;;;;5014691;28;20366;-49
2023/08/15 03:46:51;;;;;;;15.38;11.13;;;20.90;99.90;;;;;;5014644;28;20034;-48
2023/08/15 03:49:17;;;;;;;14.50;10.40;;;20.80;99.90;;;;;;5013153;28;20030;-49
2023/08/15 03:51:43;;;;;;;15.98;10.40;;;20.70;99.90;;;;;;5014643;28;20424;-48
2023/08/15 03:54:08;;;;;;;18.48;11.10;;;20.70;99.90;;;;;;5013573;28;20029;-54
2023/08/15 03:56:34;;;;;;;15.13;11.15;;;20.70;99.90;;;;;;5013583;28;20511;-51
2023/08/15 03:59:00;;;;;;;17.73;11.73;;;20.70;99.90;;;;;;5014428;28;20026;-49
2023/08/15 04:01:25;;;;;;;14.20;9.93;;;20.80;99.90;;;;;;5013384;28;20386;-52
2023/08/15 04:03:53;;;;;;;11.80;8.23;;;20.70;99.90;;;;;;5014299;28;20059;-50
2023/08/15 04:06:19;;;;;;;14.77;8.88;;;20.70;99.90;;;;;;5014304;28;20033;-52
2023/08/15 04:08:45;;;;;;;19.40;10.57;;;20.70;99.90;;;;;;5014062;28;20448;-51
2023/08/15 04:11:10;;;;;;;17.70;10.68;;;20.70;99.90;;;;;;5014463;28;20026;-52
2023/08/15 04:13:36;;;;;;;18.95;10.98;;;20.80;99.90;;;;;;5014434;28;20034;-50
2023/08/15 04:16:01;;;;;;;22.25;12.43;;;20.90;99.90;;;;;;5014259;28;20052;-50
2023/08/15 04:18:27;;;;;;;21.80;11.85;;;20.70;99.90;;;;;;5013958;28;20113;-53
2023/08/15 04:20:53;;;;;;;22.33;13.27;;;20.60;99.90;;;;;;5013934;28;20029;-53
2023/08/15 04:23:18;;;;;;;18.58;12.30;;;20.60;99.90;;;;;;5012754;28;20037;-48
2023/08/15 04:25:44;;;;;;;18.45;10.75;;;20.50;99.90;;;;;;5014021;28;20109;-51
2023/08/15 04:28:09;;;;;;;16.10;12.27;;;20.50;99.90;;;;;;5014074;28;20061;-54
2023/08/15 04:30:35;;;;;;;23.38;13.38;;;20.60;99.90;;;;;;5013581;28;20052;-51
2023/08/15 04:33:01;;;;;;;14.73;12.13;;;20.60;99.90;;;;;;5013533;28;20038;-55
2023/08/15 04:35:27;;;;;;;19.92;13.05;;;20.70;99.90;;;;;;5012544;28;20073;-53
2023/08/15 04:37:52;;;;;;;16.60;11.10;;;20.60;99.90;;;;;;5012603;28;20026;-49
2023/08/15 04:40:40;;;;;;;19.98;11.30;;;20.60;99.90;;;;;;5013591;28;20025;-55
2023/08/15 04:43:06;;;;;;;18.75;10.45;;;20.60;99.90;;;;;;5013619;28;20403;-51
2023/08/15 04:45:32;;;;;;;14.30;9.68;;;20.60;99.90;;;;;;5012300;28;20025;-47
2023/08/15 04:47:57;;;;;;;15.65;8.82;;;20.60;99.90;;;;;;5013498;28;20164;-50
2023/08/15 04:50:23;;;;;;;9.20;7.05;;;20.60;99.90;;;;;;5012229;28;20026;-50
2023/08/15 04:52:49;;;;;;;7.60;5.20;;;20.60;99.90;;;;;;5012106;28;20034;-48
2023/08/15 04:55:15;;;;;;;8.13;4.63;;;20.60;99.90;;;;;;5013445;28;20059;-51
2023/08/15 04:57:41;;;;;;;3.92;3.58;;;20.60;99.90;;;;;;5013280;28;20165;-53
2023/08/15 05:00:15;;;;;;;8.57;4.47;;;20.60;99.90;;;;;;5013290;28;20444;-49
2023/08/15 05:02:40;;;;;;;3.80;3.25;;;20.60;99.90;;;;;;5012259;28;20202;-53
2023/08/15 05:05:10;;;;;;;6.63;4.28;;;20.70;99.90;;;;;;5012224;28;20029;-54
2023/08/15 05:07:36;;;;;;;4.40;3.55;;;20.80;99.90;;;;;;5012258;28;20030;-49
2023/08/15 05:10:02;;;;;;;3.30;2.60;;;21.00;99.90;;;;;;5013021;28;20534;-53
2023/08/15 05:12:28;;;;;;;3.40;2.90;;;21.20;99.90;;;;;;5011755;28;20033;-51
2023/08/15 05:14:54;;;;;;;5.63;2.85;;;21.40;99.90;;;;;;5012929;28;20096;-50
2023/08/15 05:17:19;;;;;;;5.03;3.55;;;21.50;99.90;;;;;;5012898;28;20026;-55
2023/08/15 05:19:45;;;;;;;7.07;3.60;;;21.50;99.90;;;;;;5012888;28;20034;-48
2023/08/15 05:22:10;;;;;;;5.25;3.70;;;21.60;99.90;;;;;;5012981;28;20169;-48
2023/08/15 05:24:36;;;;;;;9.45;4.00;;;21.50;99.90;;;;;;5012840;28;20101;-49
2023/08/15 05:27:01;;;;;;;8.75;4.00;;;21.40;99.90;;;;;;5012831;28;20485;-56
2023/08/15 05:29:27;;;;;;;8.25;5.00;;;21.40;99.90;;;;;;5012645;28;20041;-52
2023/08/15 05:31:53;;;;;;;6.95;4.07;;;21.40;99.90;;;;;;5028109;22;20034;-44
2023/08/15 05:34:18;;;;;;;7.05;5.68;;;21.40;99.90;;;;;;5031234;28;20033;-46
2023/08/15 05:36:44;;;;;;;10.75;5.13;;;21.40;99.90;;;;;;5032573;28;20041;-46
2023/08/15 05:39:09;;;;;;;7.43;5.65;;;21.50;99.90;;;;;;5031959;28;20125;-46
2023/08/15 05:41:34;;;;;;;8.85;5.18;;;21.70;99.90;;;;;;5014593;28;20044;-47
2023/08/15 05:44:00;;;;;;;8.18;5.78;;;22.20;99.90;;;;;;5032525;28;20032;-48
2023/08/15 05:46:25;;;;;;;9.82;5.25;;;22.80;99.90;;;;;;5032150;28;20029;-45
2023/08/15 05:48:51;;;;;;;6.68;5.15;;;23.30;99.90;;;;;;5031957;28;20033;-47
2023/08/15 05:51:16;;;;;;;10.07;5.40;;;23.60;99.90;;;;;;5032131;28;20025;-47
2023/08/15 05:53:42;;;;;;;5.68;4.88;;;23.90;99.90;;;;;;5031812;28;20484;-46
2023/08/15 05:56:07;;;;;;;8.30;5.13;;;24.10;99.90;;;;;;5031432;28;20029;-49
2023/08/15 05:58:33;;;;;;;7.35;5.50;;;24.00;99.90;;;;;;5014019;28;20033;-48
2023/08/15 06:00:58;;;;;;;6.38;4.63;;;23.90;99.90;;;;;;5031911;28;20091;-46
2023/08/15 06:03:24;;;;;;;10.90;5.43;;;23.80;99.90;;;;;;5031770;28;20033;-46
2023/08/15 06:05:49;;;;;;;12.07;5.88;;;23.60;99.90;;;;;;5031953;28;20036;-45
2023/08/15 06:08:15;;;;;;;6.57;4.47;;;23.60;99.90;;;;;;5031441;28;20100;-49
2023/08/15 06:10:40;;;;;;;8.82;4.40;;;23.70;99.90;;;;;;5005322;28;20033;-48
2023/08/15 06:13:06;;;;;;;5.47;4.32;;;23.90;99.90;;;;;;5012122;28;20021;-47
2023/08/15 06:15:31;;;;;;;6.80;4.32;;;24.00;99.90;;;;;;5025582;28;20030;-49
2023/08/15 06:17:57;;;;;;;8.38;4.53;;;24.20;99.90;;;;;;5031347;28;20068;-53
2023/08/15 06:20:22;;;;;;;7.25;4.32;;;24.30;99.90;;;;;;5031474;28;20411;-49
2023/08/15 06:22:48;;;;;;;5.85;3.70;;;24.70;99.90;;;;;;5031115;28;20038;-47
2023/08/15 06:25:14;;;;;;;5.88;3.88;;;25.00;99.90;;;;;;5031418;28;20458;-48
2023/08/15 06:27:39;;;;;;;8.32;3.30;;;25.60;99.90;;;;;;5031611;28;20151;-48
2023/08/15 06:30:06;;;;;;;7.18;4.20;;;26.20;99.90;;;;;;4996446;28;20121;-50
2023/08/15 06:32:32;;;;;;;5.38;3.35;;;26.90;99.90;;;;;;5011776;28;20508;-48
2023/08/15 06:34:58;;;;;;;9.63;3.95;;;27.40;99.90;;;;;;5011984;28;20041;-49
2023/08/15 06:37:23;;;;;;;3.08;2.78;;;27.90;99.90;;;;;;5011788;28;20034;-49
2023/08/15 06:39:49;;;;;;;7.68;3.15;;;28.70;99.90;;;;;;5011459;28;20018;-48
2023/08/15 06:42:15;;;;;;;7.40;3.28;;;28.70;99.90;;;;;;5029020;28;20481;-49
2023/08/15 06:44:43;;;;;;;3.42;3.13;;;28.80;99.90;;;;;;5031435;28;20030;-53
2023/08/15 06:47:10;;;;;;;4.10;2.92;;;28.70;99.90;;;;;;5031551;28;20057;-48
2023/08/15 06:49:36;;;;;;;3.38;2.92;;;28.80;99.90;;;;;;5031248;28;20025;-49
2023/08/15 06:52:01;;;;;;;4.65;3.00;;;29.20;99.90;;;;;;5030601;28;20033;-49
2023/08/15 06:54:27;;;;;;;6.35;3.45;;;29.70;99.90;;;;;;5030488;28;20507;-49
2023/08/15 06:56:52;;;;;;;6.25;3.65;;;30.10;99.90;;;;;;5030873;28;20037;-50
2023/08/15 06:59:19;;;;;;;6.03;3.22;;;30.20;99.90;;;;;;5012673;28;20029;-50
2023/08/15 07:01:45;;;;;;;5.68;3.20;;;30.20;99.90;;;;;;5030525;28;20388;-51
2023/08/15 07:04:10;;;;;;;6.55;3.47;;;29.90;99.90;;;;;;5031091;28;20080;-50
2023/08/15 07:06:37;;;;;;;4.18;2.70;;;29.90;99.90;;;;;;5033257;28;20021;-52
2023/08/15 07:09:06;;;;;;;5.10;3.05;;;30.20;99.90;;;;;;5034876;28;20036;-52
2023/08/15 07:11:32;;;;;;;6.40;3.00;;;30.70;99.90;;;;;;5034990;28;20555;-52
2023/08/15 07:13:57;;;;;;;5.05;3.03;;;31.00;99.90;;;;;;5034878;28;20030;-48
2023/08/15 07:16:23;;;;;;;9.60;3.15;;;31.20;99.90;;;;;;5034785;28;20488;-49
2023/08/15 07:18:49;;;;;;;4.85;3.45;;;31.70;99.90;;;;;;5034488;28;20080;-51
2023/08/15 07:21:14;;;;;;;12.52;3.35;;;32.20;99.90;;;;;;5034802;28;20021;-51
2023/08/15 07:23:40;;;;;;;7.03;3.22;;;32.90;99.90;;;;;;5034622;28;20021;-50
2023/08/15 07:26:05;;;;;;;5.53;3.05;;;33.60;99.90;;;;;;5034868;28;20025;-53
2023/08/15 07:28:31;;;;;;;8.90;2.78;;;34.30;99.90;;;;;;5034605;28;20021;-50
2023/08/15 07:30:56;;;;;;;5.20;2.50;;;34.60;99.60;;;;;;5034566;28;20026;-49
2023/08/15 07:33:22;;;;;;;3.13;2.60;;;34.30;99.00;;;;;;5016674;28;20515;-49
2023/08/15 07:35:48;;;;;;;4.28;2.70;;;34.40;98.60;;;;;;5034505;28;20535;-49
2023/08/15 07:38:14;;;;;;;3.90;2.47;;;34.80;98.20;;;;;;5034409;28;20033;-53
2023/08/15 07:40:40;;;;;;;8.38;2.72;;;34.90;98.10;;;;;;5034509;28;20021;-50
2023/08/15 07:43:05;;;;;;;4.15;2.78;;;35.30;97.70;;;;;;5034612;28;20108;-52
2023/08/15 07:45:31;;;;;;;4.70;2.67;;;35.60;97.40;;;;;;5034330;28;20045;-52
2023/08/15 07:47:58;;;;;;;5.97;2.90;;;35.70;96.70;;;;;;5034433;28;20044;-51
2023/08/15 07:50:26;;;;;;;6.32;2.78;;;35.90;96.40;;;;;;5034177;28;20546;-51
2023/08/15 07:52:52;;;;;;;6.57;2.83;;;36.30;96.20;;;;;;5034498;28;20450;-52
2023/08/15 07:55:18;;;;;;;2.35;2.15;;;36.60;95.80;;;;;;5034419;28;20511;-51
2023/08/15 07:57:44;;;;;;;3.45;2.35;;;36.80;95.00;;;;;;5034453;28;20041;-52
2023/08/15 08:00:12;;;;;;;4.78;2.47;;;36.50;95.20;;;;;;5033693;28;20017;-55
2023/08/15 08:02:40;;;;;;;3.83;2.53;;;36.50;95.00;;;;;;5033692;28;20021;-49
2023/08/15 08:05:09;;;;;;;9.10;2.63;;;36.90;95.10;;;;;;5033200;28;20036;-54
2023/08/15 08:07:35;;;;;;;2.65;2.13;;;36.90;94.50;;;;;;5033883;28;20026;-52
2023/08/15 08:10:01;;;;;;;3.65;2.25;;;36.50;94.00;;;;;;5032795;28;20441;-53
2023/08/15 08:12:28;;;;;;;5.88;2.30;;;35.80;94.40;;;;;;5015590;28;20033;-53
2023/08/15 08:14:54;;;;;;;5.25;2.70;;;35.90;94.10;;;;;;5033884;28;20041;-55
2023/08/15 08:17:19;;;;;;;9.18;2.40;;;36.60;93.40;;;;;;5032223;28;20071;-52
2023/08/15 08:19:45;;;;;;;4.18;1.80;;;36.50;92.90;;;;;;5033280;28;20029;-50
2023/08/15 08:22:10;;;;;;;2.47;2.13;;;36.90;93.00;;;;;;5033185;28;20033;-50
2023/08/15 08:24:36;;;;;;;4.75;2.30;;;37.10;92.80;;;;;;5033904;28;20037;-51
2023/08/15 08:27:02;;;;;;;3.63;2.50;;;35.70;93.60;;;;;;5033418;28;20026;-51
2023/08/15 08:29:28;;;;;;;3.63;2.03;;;35.30;94.10;;;;;;5033452;28;20049;-51
2023/08/15 08:31:53;;;;;;;2.72;1.92;;;35.10;94.30;;;;;;5033386;28;20489;-51
2023/08/15 08:34:18;;;;;;;4.25;2.10;;;35.80;94.30;;;;;;5033646;28;20037;-53
2023/08/15 08:36:44;;;;;;;2.70;1.80;;;35.20;94.70;;;;;;5015375;28;20460;-50
2023/08/15 08:39:11;;;;;;;1.80;1.70;;;35.50;94.50;;;;;;5032698;28;20033;-51
2023/08/15 08:41:37;;;;;;;6.07;2.08;;;36.10;93.80;;;;;;5032880;28;20028;-55
2023/08/15 08:44:03;;;;;;;1.88;1.60;;;36.10;93.00;;;;;;5033256;28;20456;-50
2023/08/15 08:46:29;;;;;;;1.48;1.38;;;35.50;94.30;;;;;;5033169;28;20488;-53
2023/08/15 08:48:59;;;;;;;13.32;2.72;;;35.30;94.70;;;;;;5032875;28;20435;-54
2023/08/15 08:51:25;;;;;;;3.78;2.10;;;35.80;94.10;;;;;;5032607;28;20033;-50
2023/08/15 08:53:54;;;;;;;4.47;1.92;;;36.20;93.70;;;;;;5033519;28;20060;-54
2023/08/15 08:56:25;;;;;;;4.22;2.00;;;36.00;93.50;;;;;;5033796;28;20058;-55
2023/08/15 08:58:57;;;;;;;4.85;2.42;;;34.90;94.70;;;;;;5016015;28;20026;-56
2023/08/15 09:01:22;;;;;;;2.95;2.65;;;34.10;96.50;;;;;;5024227;28;20018;-52
2023/08/15 09:03:48;;;;;;;4.10;2.30;;;33.20;98.40;;;;;;5033100;28;20032;-54
2023/08/15 09:06:14;;;;;;;2.35;1.98;;;32.90;98.30;;;;;;5026188;28;20100;-55
2023/08/15 09:08:40;;;;;;;4.38;2.25;;;32.90;98.40;;;;;;5017268;28;20516;-54
2023/08/15 09:11:05;;;;;;;5.28;2.13;;;32.80;98.50;;;;;;5037432;28;20081;-50
2023/08/15 09:13:30;;;;;;;4.18;2.35;;;32.60;97.90;;;;;;5033180;28;20021;-51
2023/08/15 09:15:58;;;;;;;4.38;2.15;;;32.00;98.90;;;;;;5035233;28;20534;-53
2023/08/15 09:18:26;;;;;;;4.97;2.65;;;31.50;99.90;;;;;;5033968;28;20025;-47
2023/08/15 09:20:52;;;;;;;5.05;2.70;;;31.10;99.90;;;;;;5039675;28;20045;-52
2023/08/15 09:23:18;;;;;;;2.92;2.22;;;31.20;99.90;;;;;;5018875;28;20170;-53
2023/08/15 09:25:43;;;;;;;5.85;2.17;;;31.50;99.90;;;;;;5034193;28;20029;-52
2023/08/15 09:28:09;;;;;;;2.70;2.03;;;31.60;99.90;;;;;;5034504;28;20029;-49
2023/08/15 09:30:34;;;;;;;2.65;2.05;;;31.80;99.90;;;;;;5032834;28;20033;-50
2023/08/15 09:33:01;;;;;;;29.83;24.88;;;31.90;99.80;;;;;;5015897;28;20420;-50
2023/08/15 09:35:30;;;;;;;62.45;47.90;;;32.00;99.80;;;;;;5032200;28;20024;-53
2023/08/15 09:37:56;;;;;;;12.30;10.38;;;31.90;99.50;;;;;;5031909;28;20044;-53
2023/08/15 09:40:25;;;;;;;7.03;2.38;;;32.20;99.90;;;;;;5032352;28;20104;-52
2023/08/15 09:42:52;;;;;;;6.18;2.38;;;32.50;99.60;;;;;;5031841;28;20026;-53
2023/08/15 09:45:18;;;;;;;2.40;1.88;;;32.80;99.60;;;;;;5035761;28;20032;-55
2023/08/15 09:47:45;;;;;;;1.98;1.77;;;32.90;97.80;;;;;;5039697;28;20044;-54
2023/08/15 09:50:13;;;;;;;5.18;2.42;;;32.90;97.90;;;;;;5039022;28;20032;-54
2023/08/15 09:52:41;;;;;;;3.92;2.00;;;33.00;98.30;;;;;;5035498;28;20033;-53
2023/08/15 09:55:14;;;;;;;3.13;2.20;;;33.10;98.20;;;;;;5038307;28;20033;-56
2023/08/15 09:57:45;;;;;;;2.75;1.55;;;32.90;97.80;;;;;;5037326;28;20033;-56
2023/08/15 10:00:12;;;;;;;2.13;1.92;;;32.90;99.00;;;;;;5032508;28;20021;-51
2023/08/15 10:02:44;;;;;;;6.30;2.08;;;32.80;98.90;;;;;;5033534;28;20388;-50
2023/08/15 10:05:12;;;;;;;4.47;2.08;;;32.70;98.50;;;;;;5029992;28;20052;-54
2023/08/15 10:07:40;;;;;;;3.67;2.20;;;32.40;98.90;;;;;;5031334;28;20041;-50
2023/08/15 10:10:06;;;;;;;1.90;1.80;;;31.60;98.70;;;;;;5030610;28;20488;-47
2023/08/15 10:12:33;;;;;;;1.83;1.65;;;31.20;99.50;;;;;;5031367;28;20032;-50
2023/08/15 10:14:59;;;;;;;4.97;2.08;;;30.70;99.90;;;;;;5030935;28;20032;-49
2023/08/15 10:17:26;;;;;;;3.70;2.30;;;30.40;99.90;;;;;;5031351;28;20448;-50
2023/08/15 10:19:52;;;;;;;2.92;2.20;;;30.20;99.90;;;;;;5031075;28;20090;-50
2023/08/15 10:22:20;;;;;;;2.10;1.70;;;30.00;99.90;;;;;;5031553;28;20476;-53
2023/08/15 10:24:46;;;;;;;2.42;1.80;;;29.90;99.90;;;;;;5031514;28;20061;-50
2023/08/15 10:27:14;;;;;;;2.17;1.98;;;29.30;99.90;;;;;;5031172;28;20080;-51
2023/08/15 10:29:52;;;;;;;2.03;1.63;;;29.30;99.90;;;;;;5030992;28;20029;-48
2023/08/15 10:32:24;;;;;;;1.95;1.85;;;28.90;99.90;;;;;;5030961;28;20488;-50
2023/08/15 10:34:53;;;;;;;1.77;1.60;;;28.70;99.90;;;;;;5031586;28;20030;-49
2023/08/15 10:37:36;;;;;;;2.50;1.52;;;28.40;99.90;;;;;;5031280;28;20120;-48
2023/08/15 10:40:10;;;;;;;2.85;1.50;;;28.10;99.90;;;;;;5031233;28;20018;-49
2023/08/15 10:43:00;;;;;;;1.77;1.67;;;27.80;99.90;;;;;;5037834;28;20117;-47
2023/08/15 10:45:29;;;;;;;2.97;1.40;;;27.60;99.90;;;;;;5038015;28;20056;-50
2023/08/15 10:47:55;;;;;;;3.58;2.08;;;27.50;99.90;;;;;;5037900;28;20057;-48
2023/08/15 10:50:22;;;;;;;3.97;1.73;;;27.40;99.90;;;;;;5037604;28;20029;-48
2023/08/15 10:53:01;;;;;;;2.78;1.30;;;27.30;99.90;;;;;;5020088;28;20051;-51
2023/08/15 10:55:28;;;;;;;4.13;1.95;;;27.20;99.90;;;;;;5037774;28;20397;-48
2023/08/15 10:57:57;;;;;;;1.75;1.65;;;27.20;99.90;;;;;;5037747;28;20029;-50
2023/08/15 11:00:23;;;;;;;3.00;1.67;;;27.10;99.90;;;;;;5037831;28;20021;-48
2023/08/15 11:02:50;;;;;;;2.20;1.70;;;26.80;99.90;;;;;;5037971;28;20489;-51
2023/08/15 11:05:17;;;;;;;7.35;2.00;;;26.70;99.90;;;;;;5037732;28;20032;-50
2023/08/15 11:07:43;;;;;;;7.88;2.00;;;26.40;99.90;;;;;;5037692;28;20040;-47
2023/08/15 11:10:09;;;;;;;10.25;2.05;;;26.20;99.90;;;;;;5037541;28;20030;-49
2023/08/15 11:12:35;;;;;;;5.15;3.03;;;26.00;99.90;;;;;;5037481;28;20048;-48
2023/08/15 11:15:01;;;;;;;5.25;2.72;;;25.70;99.90;;;;;;5037720;28;20040;-48
2023/08/15 11:17:26;;;;;;;7.82;2.92;;;25.60;99.90;;;;;;5036953;28;20552;-50
2023/08/15 11:19:53;;;;;;;3.42;2.55;;;25.50;99.90;;;;;;5037154;28;20025;-50
2023/08/15 11:22:19;;;;;;;5.60;2.50;;;25.30;99.90;;;;;;5037518;28;20057;-54
2023/08/15 11:24:50;;;;;;;3.20;2.70;;;25.00;99.90;;;;;;5037757;28;20045;-48
2023/08/15 11:27:16;;;;;;;5.13;3.95;;;24.70;99.90;;;;;;5037685;28;20439;-48
2023/08/15 11:29:42;;;;;;;4.78;2.90;;;24.60;99.90;;;;;;5037319;28;20049;-50
2023/08/15 11:32:08;;;;;;;4.07;2.72;;;24.60;99.90;;;;;;5037834;28;20064;-48
2023/08/15 11:34:37;;;;;;;5.72;3.20;;;24.60;99.90;;;;;;5037539;28;20040;-47
2023/08/15 11:37:03;;;;;;;5.20;2.80;;;24.60;99.90;;;;;;5037411;28;20040;-50
2023/08/15 11:39:29;;;;;;;7.03;2.92;;;24.70;99.90;;;;;;5037065;28;20037;-50
2023/08/15 11:41:55;;;;;;;5.45;2.85;;;24.60;99.90;;;;;;5019414;28;20018;-48
2023/08/15 11:44:21;;;;;;;7.28;3.00;;;24.40;99.90;;;;;;5037482;28;20029;-49
2023/08/15 11:46:47;;;;;;;5.20;2.67;;;24.40;99.90;;;;;;5037384;28;20447;-52
2023/08/15 11:49:17;;;;;;;5.43;3.08;;;24.30;99.90;;;;;;5037063;28;20018;-53
2023/08/15 11:51:43;;;;;;;6.38;3.10;;;24.30;99.90;;;;;;5036715;28;20025;-53
2023/08/15 11:54:08;;;;;;;3.83;2.58;;;24.20;99.90;;;;;;5033349;28;20031;-49
2023/08/15 11:56:48;;;;;;;8.10;3.15;;;24.10;99.90;;;;;;5033600;28;20036;-53
2023/08/15 11:59:17;;;;;;;5.82;3.60;;;24.10;99.90;;;;;;5034031;28;20487;-48
2023/08/15 12:01:43;;;;;;;4.90;2.40;;;24.80;99.90;;;;;;5034088;28;20026;-50
2023/08/15 12:04:12;;;;;;;6.40;3.22;;;24.30;99.90;;;;;;5034158;28;20396;-52
2023/08/15 12:06:39;;;;;;;3.60;2.45;;;24.50;99.90;;;;;;5034066;28;20044;-48
2023/08/15 12:09:08;;;;;;;5.80;3.00;;;24.70;99.90;;;;;;5033496;28;20557;-48
2023/08/15 12:11:34;;;;;;;8.13;3.03;;;24.80;99.90;;;;;;5033862;28;20033;-51
2023/08/15 12:14:02;;;;;;;5.07;2.83;;;24.80;99.90;;;;;;5033809;28;20036;-49
2023/08/15 12:16:27;;;;;;;5.82;3.10;;;24.90;99.90;;;;;;5033804;28;20049;-50
2023/08/15 12:18:53;;;;;;;4.72;2.78;;;25.00;99.90;;;;;;5033547;28;20500;-49
2023/08/15 12:21:18;;;;;;;7.05;2.75;;;25.00;99.90;;;;;;5033735;28;20030;-51
2023/08/15 12:23:44;;;;;;;6.25;3.00;;;25.10;99.90;;;;;;5033450;28;20106;-51
2023/08/15 12:26:10;;;;;;;4.78;2.60;;;25.10;99.90;;;;;;5033590;28;20445;-49
2023/08/15 12:28:36;;;;;;;4.82;2.72;;;25.10;99.90;;;;;;5033482;28;20028;-50
2023/08/15 12:31:01;;;;;;;7.63;2.90;;;25.10;99.90;;;;;;5033472;28;20030;-49
2023/08/15 12:33:32;;;;;;;4.55;3.05;;;24.90;99.90;;;;;;5033230;28;20033;-51
2023/08/15 12:35:58;;;;;;;2.97;2.65;;;24.80;99.90;;;;;;5033531;28;20025;-48
2023/08/15 12:38:23;;;;;;;5.35;3.47;;;24.60;99.90;;;;;;5033055;28;20029;-50
2023/08/15 12:40:49;;;;;;;5.85;2.88;;;24.50;99.90;;;;;;5033303;28;20101;-48